createdAt,value
2019-03-01T00:01:22.581Z,55.48
2019-03-01T00:03:54.074Z,61.75
2019-03-01T00:06:27.166Z,49.00
2019-03-01T00:09:07.430Z,62.30
2019-03-01T00:11:47.981Z,59.58
2019-03-01T00:14:22.324Z,57.67
2019-03-01T00:17:22.534Z,56.75
2019-03-01T00:20:28.843Z,55.75
2019-03-01T00:23:03.233Z,62.95
2019-03-01T00:25:53.077Z,57.45
2019-03-01T00:28:30.513Z,53.58
2019-03-01T00:31:11.176Z,58.05
2019-03-01T00:33:51.546Z,55.08
2019-03-01T00:36:51.800Z,57.05
2019-03-01T00:39:32.299Z,55.30
2019-03-01T00:42:20.381Z,56.48
2019-03-01T00:44:48.950Z,55.92
2019-03-01T00:47:17.389Z,61.13
2019-03-01T00:49:45.872Z,64.20
2019-03-01T00:52:14.418Z,57.15
2019-03-01T00:54:42.898Z,64.80
2019-03-01T00:57:11.362Z,58.30
2019-03-01T00:59:39.827Z,54.05
2019-03-01T01:02:08.299Z,65.17
2019-03-01T01:04:36.730Z,62.83
2019-03-01T01:07:05.212Z,62.27
2019-03-01T01:09:33.636Z,62.15
2019-03-01T01:12:02.246Z,63.87
2019-03-01T01:14:30.708Z,63.52
2019-03-01T01:16:59.164Z,66.97
2019-03-01T01:19:27.662Z,69.55
2019-03-01T01:21:56.144Z,66.42
2019-03-01T01:24:24.590Z,66.67
2019-03-01T01:26:53.028Z,56.25
2019-03-01T01:29:21.503Z,59.18
2019-03-01T01:31:49.952Z,58.90
2019-03-01T01:34:18.398Z,54.55
2019-03-01T01:36:46.864Z,60.90
2019-03-01T01:39:16.364Z,55.63
2019-03-01T01:41:44.827Z,53.60
2019-03-01T01:44:13.295Z,56.18
2019-03-01T01:46:41.754Z,64.72
2019-03-01T01:49:10.196Z,62.15
2019-03-01T01:51:38.672Z,55.80
2019-03-01T01:54:07.142Z,56.28
2019-03-01T01:56:35.603Z,61.30
2019-03-01T01:59:04.062Z,55.15
2019-03-01T02:01:32.548Z,60.83
2019-03-01T02:04:01.000Z,69.92
2019-03-01T02:06:29.604Z,62.33
2019-03-01T02:08:58.070Z,60.28
2019-03-01T02:11:26.516Z,58.92
2019-03-01T02:13:54.966Z,54.10
2019-03-01T02:16:23.428Z,57.75
2019-03-01T02:18:57.827Z,57.23
2019-03-01T02:21:22.052Z,54.40
2019-03-01T02:23:50.520Z,56.70
2019-03-01T02:26:18.968Z,56.37
2019-03-01T02:28:47.432Z,59.90
2019-03-01T02:31:16.059Z,56.53
2019-03-01T02:33:44.542Z,60.55
2019-03-01T02:36:13.002Z,55.85
2019-03-01T02:38:41.464Z,53.17
2019-03-01T02:41:09.946Z,54.93
2019-03-01T02:43:38.385Z,55.95
2019-03-01T02:46:06.808Z,60.92
2019-03-01T02:48:35.287Z,57.48
2019-03-01T02:51:03.765Z,59.48
2019-03-01T02:53:32.202Z,59.38
2019-03-01T02:56:00.652Z,56.55
2019-03-01T02:58:29.094Z,54.45
2019-03-01T03:00:57.556Z,58.90
2019-03-01T03:03:26.001Z,50.38
2019-03-01T03:05:59.235Z,46.88
2019-03-01T03:08:27.681Z,50.05
2019-03-01T03:10:56.168Z,57.08
2019-03-01T03:13:24.609Z,49.93
2019-03-01T03:15:54.244Z,57.05
2019-03-01T03:18:23.154Z,55.17
2019-03-01T03:20:51.627Z,52.67
2019-03-01T03:23:20.101Z,50.65
2019-03-01T03:25:48.533Z,61.58
2019-03-01T03:28:16.992Z,57.93
2019-03-01T03:30:45.447Z,55.03
2019-03-01T03:33:13.913Z,53.38
2019-03-01T03:35:43.719Z,51.48
2019-03-01T03:38:12.158Z,55.43
2019-03-01T03:40:40.619Z,53.87
2019-03-01T03:43:09.070Z,54.50
2019-03-01T03:45:37.536Z,54.40
2019-03-01T03:48:05.974Z,66.17
2019-03-01T03:50:34.715Z,52.90
2019-03-01T03:53:03.227Z,57.83
2019-03-01T03:55:31.622Z,55.25
2019-03-01T03:58:00.085Z,62.80
2019-03-01T04:00:28.535Z,55.63
2019-03-01T04:02:56.983Z,59.70
2019-03-01T04:05:26.947Z,58.87
2019-03-01T04:07:55.389Z,73.90
2019-03-01T04:10:23.867Z,70.55
2019-03-01T04:12:52.299Z,81.40
2019-03-01T04:15:20.803Z,68.10
2019-03-01T04:17:49.213Z,64.32
2019-03-01T04:20:18.751Z,69.62
2019-03-01T04:22:47.241Z,71.45
2019-03-01T04:25:15.682Z,62.15
2019-03-01T04:27:44.157Z,66.80
2019-03-01T04:30:14.973Z,73.50
2019-03-01T04:32:43.433Z,79.32
2019-03-01T04:35:12.041Z,72.37
2019-03-01T04:37:40.488Z,77.17
2019-03-01T04:40:11.297Z,65.08
2019-03-01T04:42:39.740Z,75.90
2019-03-01T04:45:10.860Z,70.22
2019-03-01T04:47:39.335Z,67.70
2019-03-01T04:50:10.380Z,75.50
2019-03-01T04:52:39.042Z,68.50
2019-03-01T04:55:10.302Z,63.25
2019-03-01T04:57:38.756Z,56.80
2019-03-01T05:00:10.270Z,63.65
2019-03-01T05:02:38.709Z,55.75
2019-03-01T05:05:07.264Z,57.55
2019-03-01T05:07:35.720Z,60.10
2019-03-01T05:10:06.309Z,60.78
2019-03-01T05:12:34.782Z,61.70
2019-03-01T05:15:03.626Z,54.95
2019-03-01T05:17:32.190Z,58.33
2019-03-01T05:20:01.007Z,61.02
2019-03-01T05:22:29.455Z,57.53
2019-03-01T05:24:57.907Z,49.70
2019-03-01T05:27:26.370Z,59.08
2019-03-01T05:29:54.861Z,67.62
2019-03-01T05:32:23.305Z,56.88
2019-03-01T05:34:51.789Z,62.53
2019-03-01T05:37:20.243Z,66.30
2019-03-01T05:39:48.678Z,67.97
2019-03-01T05:42:17.145Z,72.85
2019-03-01T05:44:45.582Z,72.65
2019-03-01T05:47:14.044Z,75.37
2019-03-01T05:49:42.524Z,71.72
2019-03-01T05:52:11.006Z,78.22
2019-03-01T05:54:39.459Z,78.57
2019-03-01T05:57:07.897Z,78.55
2019-03-01T05:59:36.371Z,82.72
2019-03-01T06:02:07.889Z,100.42
2019-03-01T06:04:42.222Z,81.47
2019-03-01T06:07:28.689Z,84.03
2019-03-01T06:10:00.356Z,93.70
2019-03-01T06:12:34.511Z,88.27
2019-03-01T06:15:34.291Z,99.50
2019-03-01T06:18:38.868Z,95.83
2019-03-01T06:21:29.624Z,86.60
2019-03-01T06:24:03.665Z,95.47
2019-03-01T06:26:47.261Z,89.50
2019-03-01T06:29:24.331Z,94.92
2019-03-01T06:32:13.802Z,93.22
2019-03-01T06:34:57.054Z,95.12
2019-03-01T06:37:46.364Z,95.95
2019-03-01T06:40:30.892Z,96.47
2019-03-01T06:43:10.734Z,88.33
2019-03-01T06:45:48.367Z,88.17
2019-03-01T06:48:18.499Z,105.10
2019-03-01T06:50:48.653Z,95.80
2019-03-01T06:53:17.119Z,85.62
2019-03-01T06:55:45.657Z,93.67
2019-03-01T06:58:17.566Z,101.97
2019-03-01T07:00:50.376Z,97.78
2019-03-01T07:03:17.883Z,94.00
2019-03-01T07:05:46.407Z,102.70
2019-03-01T07:08:14.926Z,99.47
2019-03-01T07:10:43.379Z,85.60
2019-03-01T07:13:11.859Z,88.78
2019-03-01T07:15:40.317Z,87.35
2019-03-01T07:18:08.811Z,103.30
2019-03-01T07:20:37.266Z,79.60
2019-03-01T07:23:05.833Z,85.35
2019-03-01T07:25:34.301Z,104.60
2019-03-01T07:28:02.786Z,96.80
2019-03-01T07:30:31.251Z,102.42
2019-03-01T07:32:59.699Z,104.17
2019-03-01T07:35:28.181Z,98.47
2019-03-01T07:37:56.629Z,91.70
2019-03-01T07:40:25.088Z,89.75
2019-03-01T07:42:53.587Z,97.67
2019-03-01T07:45:22.121Z,105.80
2019-03-01T07:47:50.626Z,96.97
2019-03-01T07:50:19.070Z,101.70
2019-03-01T07:52:47.543Z,108.85
2019-03-01T07:55:16.019Z,90.05
2019-03-01T07:57:46.555Z,82.65
2019-03-01T08:00:17.905Z,80.92
2019-03-01T08:02:46.338Z,79.22
2019-03-01T08:05:16.399Z,89.40
2019-03-01T08:07:55.413Z,84.00
2019-03-01T08:10:20.922Z,85.65
2019-03-01T08:12:47.461Z,93.82
2019-03-01T08:15:17.403Z,78.57
2019-03-01T08:17:45.887Z,77.22
2019-03-01T08:20:15.968Z,85.03
2019-03-01T08:22:48.559Z,78.85
2019-03-01T08:25:14.718Z,80.70
2019-03-01T08:27:46.314Z,91.95
2019-03-01T08:30:15.672Z,85.42
2019-03-01T08:32:44.334Z,85.95
2019-03-01T08:35:14.039Z,72.03
2019-03-01T08:37:42.514Z,76.50
2019-03-01T08:40:14.652Z,77.47
2019-03-01T08:42:43.977Z,75.92
2019-03-01T08:45:15.101Z,83.55
2019-03-01T08:47:43.567Z,78.67
2019-03-01T08:50:16.509Z,79.55
2019-03-01T08:52:45.813Z,88.07
2019-03-01T08:55:16.863Z,96.05
2019-03-01T08:57:45.299Z,84.28
2019-03-01T09:00:16.736Z,94.10
2019-03-01T09:02:45.202Z,75.15
2019-03-01T09:05:14.126Z,86.05
2019-03-01T09:07:42.597Z,73.42
2019-03-01T09:10:14.064Z,82.65
2019-03-01T09:12:42.522Z,75.00
2019-03-01T09:15:13.343Z,81.80
2019-03-01T09:17:41.864Z,81.00
2019-03-01T09:20:12.567Z,85.45
2019-03-01T09:22:41.013Z,89.22
2019-03-01T09:25:11.721Z,83.80
2019-03-01T09:27:40.209Z,67.60
2019-03-01T09:30:17.590Z,86.32
2019-03-01T09:32:46.126Z,73.22
2019-03-01T09:35:19.718Z,90.85
2019-03-01T09:37:48.158Z,75.08
2019-03-01T09:40:16.611Z,73.50
2019-03-01T09:42:47.455Z,71.50
2019-03-01T09:45:15.292Z,73.33
2019-03-01T09:47:43.743Z,76.67
2019-03-01T09:50:12.767Z,87.08
2019-03-01T09:52:42.877Z,100.12
2019-03-01T09:55:12.651Z,92.25
2019-03-01T09:57:41.144Z,114.72
2019-03-01T10:00:27.880Z,88.92
2019-03-01T10:02:58.453Z,87.05
2019-03-01T10:05:26.510Z,79.12
2019-03-01T10:07:54.991Z,82.37
2019-03-01T10:10:29.237Z,98.47
2019-03-01T10:12:57.696Z,91.00
2019-03-01T10:15:26.215Z,83.10
2019-03-01T10:17:54.731Z,88.60
2019-03-01T10:20:23.240Z,76.45
2019-03-01T10:22:51.699Z,94.45
2019-03-01T10:25:21.167Z,80.95
2019-03-01T10:27:49.828Z,89.13
2019-03-01T10:30:21.346Z,84.55
2019-03-01T10:32:49.867Z,87.20
2019-03-01T10:35:18.502Z,86.25
2019-03-01T10:37:47.429Z,88.58
2019-03-01T10:40:23.311Z,92.82
2019-03-01T10:42:51.820Z,87.70
2019-03-01T10:45:25.291Z,86.55
2019-03-01T10:47:53.782Z,90.10
2019-03-01T10:50:22.247Z,98.25
2019-03-01T10:52:50.691Z,85.77
2019-03-01T10:55:20.106Z,103.17
2019-03-01T10:57:48.686Z,99.65
2019-03-01T11:00:26.186Z,102.60
2019-03-01T11:02:55.477Z,109.67
2019-03-01T11:05:24.319Z,110.80
2019-03-01T11:07:54.010Z,111.95
2019-03-01T11:10:25.443Z,127.20
2019-03-01T11:12:53.896Z,113.92
2019-03-01T11:15:22.543Z,128.42
2019-03-01T11:17:50.993Z,123.87
2019-03-01T11:20:20.769Z,138.07
2019-03-01T11:22:49.461Z,143.75
2019-03-01T11:25:22.888Z,132.50
2019-03-01T11:27:51.503Z,139.15
2019-03-01T11:30:25.514Z,139.40
2019-03-01T11:32:53.990Z,145.85
2019-03-01T11:35:22.507Z,136.55
2019-03-01T11:37:50.992Z,129.85
2019-03-01T11:40:34.063Z,134.67
2019-03-01T11:43:02.672Z,145.05
2019-03-01T11:45:31.131Z,137.97
2019-03-01T11:47:59.598Z,118.87
2019-03-01T11:50:28.089Z,136.05
2019-03-01T11:52:56.531Z,129.03
2019-03-01T11:55:25.047Z,135.12
2019-03-01T11:57:53.587Z,146.37
2019-03-01T12:00:26.126Z,143.10
2019-03-01T12:02:54.585Z,139.68
2019-03-01T12:05:23.073Z,142.93
2019-03-01T12:07:51.540Z,146.72
2019-03-01T12:10:28.644Z,130.10
2019-03-01T12:12:57.112Z,106.58
2019-03-01T12:15:25.712Z,97.92
2019-03-01T12:17:54.166Z,116.42
2019-03-01T12:20:31.315Z,92.88
2019-03-01T12:22:59.939Z,108.75
2019-03-01T12:25:28.399Z,92.10
2019-03-01T12:27:56.848Z,108.00
2019-03-01T12:30:28.060Z,100.40
2019-03-01T12:32:56.561Z,90.95
2019-03-01T12:35:25.071Z,88.03
2019-03-01T12:37:53.506Z,87.10
2019-03-01T12:40:29.670Z,81.35
2019-03-01T12:42:58.182Z,86.22
2019-03-01T12:45:26.651Z,72.27
2019-03-01T12:47:55.158Z,79.22
2019-03-01T12:50:23.628Z,78.72
2019-03-01T12:52:52.072Z,76.90
2019-03-01T12:55:25.663Z,75.40
2019-03-01T12:57:54.136Z,73.78
2019-03-01T13:00:33.445Z,76.02
2019-03-01T13:03:05.351Z,71.33
2019-03-01T13:05:32.102Z,72.22
2019-03-01T13:08:00.547Z,81.10
2019-03-01T13:10:40.365Z,67.87
2019-03-01T13:13:08.575Z,72.45
2019-03-01T13:15:37.244Z,67.78
2019-03-01T13:18:05.702Z,70.22
2019-03-01T13:20:37.267Z,73.50
2019-03-01T13:23:08.664Z,64.47
2019-03-01T13:25:37.128Z,54.40
2019-03-01T13:31:01.150Z,52.88
2019-03-01T13:33:29.594Z,45.83
2019-03-01T13:35:59.961Z,52.58
2019-03-01T13:38:30.393Z,35.65
2019-03-01T13:40:58.777Z,39.60
2019-03-01T13:43:28.653Z,30.75
2019-03-01T13:45:57.171Z,35.17
2019-03-01T13:48:25.606Z,27.85
2019-03-01T13:50:54.077Z,37.20
2019-03-01T13:53:22.899Z,30.37
2019-03-01T13:55:51.349Z,33.50
2019-03-01T13:58:20.456Z,27.70
2019-03-01T14:00:49.653Z,39.48
2019-03-01T14:03:20.795Z,31.93
2019-03-01T14:05:51.179Z,23.40
2019-03-01T14:08:18.653Z,22.98
2019-03-01T14:10:47.111Z,22.37
2019-03-01T14:13:15.777Z,49.25
2019-03-01T14:15:44.410Z,20.77
2019-03-01T14:18:12.861Z,22.93
2019-03-01T14:20:41.328Z,19.70
2019-03-01T14:23:09.776Z,19.95
2019-03-01T14:25:38.614Z,21.50
2019-03-01T14:28:08.505Z,25.90
2019-03-01T14:30:36.966Z,22.82
2019-03-01T14:33:05.424Z,21.52
2019-03-01T14:35:33.906Z,21.97
2019-03-01T14:38:02.380Z,22.40
2019-03-01T14:40:30.849Z,21.93
2019-03-01T14:42:59.296Z,22.35
2019-03-01T14:45:32.559Z,26.12
2019-03-01T14:48:01.500Z,20.95
2019-03-01T14:50:33.665Z,18.30
2019-03-01T14:53:01.262Z,24.63
2019-03-01T14:55:38.983Z,23.10
2019-03-01T14:58:19.018Z,19.02
2019-03-01T15:00:53.390Z,31.85
2019-03-01T15:03:28.080Z,17.05
2019-03-01T15:05:56.559Z,21.07
2019-03-01T15:08:25.000Z,30.90
2019-03-01T15:10:53.614Z,19.77
2019-03-01T15:13:22.074Z,16.30
2019-03-01T15:15:50.584Z,18.98
2019-03-01T15:18:19.059Z,13.25
2019-03-01T15:20:47.514Z,16.35
2019-03-01T15:23:15.946Z,12.25
2019-03-01T15:25:47.468Z,14.43
2019-03-01T15:28:16.659Z,11.95
2019-03-01T15:30:46.430Z,24.80
2019-03-01T15:33:15.113Z,13.72
2019-03-01T15:35:43.601Z,13.03
2019-03-01T15:38:12.040Z,17.10
2019-03-01T15:40:40.492Z,14.45
2019-03-01T15:43:09.200Z,15.23
2019-03-01T15:45:39.875Z,14.65
2019-03-01T15:48:08.010Z,15.43
2019-03-01T15:50:36.696Z,13.03
2019-03-01T15:53:05.148Z,17.90
2019-03-01T15:55:33.787Z,14.03
2019-03-01T15:58:02.230Z,14.53
2019-03-01T16:00:30.687Z,10.30
2019-03-01T16:02:59.126Z,9.25
2019-03-01T16:05:27.659Z,12.05
2019-03-01T16:07:56.143Z,10.28
2019-03-01T16:10:24.639Z,6.97
2019-03-01T16:12:53.099Z,14.68
2019-03-01T16:15:21.578Z,12.95
2019-03-01T16:17:50.046Z,12.60
2019-03-01T16:20:19.938Z,15.23
2019-03-01T16:22:51.090Z,12.13
2019-03-01T16:25:20.643Z,16.65
2019-03-01T16:27:50.752Z,10.25
2019-03-01T16:30:20.791Z,9.73
2019-03-01T16:32:50.620Z,10.45
2019-03-01T16:35:20.427Z,9.10
2019-03-01T16:37:50.582Z,19.23
2019-03-01T16:40:20.591Z,16.37
2019-03-01T16:42:54.132Z,12.43
2019-03-01T16:45:21.161Z,13.28
2019-03-01T16:47:50.431Z,12.82
2019-03-01T16:50:20.311Z,11.08
2019-03-01T16:52:48.760Z,10.82
2019-03-01T16:55:19.647Z,10.93
2019-03-01T16:57:51.874Z,8.45
2019-03-01T17:00:19.747Z,9.28
2019-03-01T17:02:49.825Z,11.40
2019-03-01T17:05:18.257Z,14.13
2019-03-01T17:07:46.806Z,13.28
2019-03-01T17:10:20.158Z,8.25
2019-03-01T17:12:48.891Z,8.30
2019-03-01T17:15:23.747Z,9.90
2019-03-01T17:17:52.200Z,9.63
2019-03-01T17:20:20.645Z,9.70
2019-03-01T17:22:49.907Z,11.80
2019-03-01T17:25:19.546Z,11.05
2019-03-01T17:27:49.621Z,9.55
2019-03-01T17:30:21.071Z,11.95
2019-03-01T17:32:49.577Z,17.80
2019-03-01T17:35:18.199Z,17.30
2019-03-01T17:37:46.647Z,12.20
2019-03-01T17:40:19.873Z,9.38
2019-03-01T17:42:48.541Z,12.55
2019-03-01T17:45:22.238Z,12.45
2019-03-01T17:47:50.849Z,16.00
2019-03-01T17:50:19.369Z,12.55
2019-03-01T17:52:47.798Z,12.37
2019-03-01T17:55:24.630Z,10.20
2019-03-01T17:57:53.289Z,11.60
2019-03-01T18:00:43.609Z,17.95
2019-03-01T18:03:12.617Z,15.03
2019-03-01T18:05:41.530Z,13.70
2019-03-01T18:08:10.081Z,14.28
2019-03-01T18:10:38.527Z,12.73
2019-03-01T18:13:07.057Z,10.25
2019-03-01T18:15:35.499Z,10.85
2019-03-01T18:18:04.116Z,13.88
2019-03-01T18:20:33.973Z,12.18
2019-03-01T18:23:03.183Z,16.40
2019-03-01T18:25:31.805Z,12.73
2019-03-01T18:28:00.279Z,12.13
2019-03-01T18:30:31.022Z,12.53
2019-03-01T18:32:59.448Z,12.45
2019-03-01T18:35:27.931Z,13.43
2019-03-01T18:37:56.386Z,14.50
2019-03-01T18:40:24.850Z,14.40
2019-03-01T18:42:53.363Z,15.55
2019-03-01T18:45:23.170Z,19.12
2019-03-01T18:47:51.611Z,13.60
2019-03-01T18:50:27.658Z,19.35
2019-03-01T18:52:55.946Z,19.30
2019-03-01T18:55:24.402Z,19.42
2019-03-01T18:57:52.877Z,22.20
2019-03-01T19:00:32.541Z,14.85
2019-03-01T19:03:00.982Z,12.50
2019-03-01T19:05:31.931Z,10.70
2019-03-01T19:08:00.925Z,13.50
2019-03-01T19:10:30.657Z,12.98
2019-03-01T19:12:59.127Z,17.45
2019-03-01T19:15:27.548Z,29.52
2019-03-01T19:17:56.252Z,18.07
2019-03-01T19:20:27.817Z,11.03
2019-03-01T19:22:56.259Z,14.85
2019-03-01T19:25:25.465Z,13.45
2019-03-01T19:27:55.181Z,16.80
2019-03-01T19:30:24.936Z,11.90
2019-03-01T19:32:53.350Z,11.60
2019-03-01T19:35:28.574Z,10.13
2019-03-01T19:37:51.987Z,9.53
2019-03-01T19:40:22.747Z,11.18
2019-03-01T19:42:51.220Z,10.58
2019-03-01T19:45:20.311Z,18.10
2019-03-01T19:47:48.983Z,12.18
2019-03-01T19:50:25.007Z,14.00
2019-03-01T19:52:53.345Z,11.40
2019-03-01T19:55:21.844Z,15.25
2019-03-01T19:57:50.296Z,12.33
2019-03-01T20:00:20.564Z,19.73
2019-03-01T20:02:49.051Z,12.93
2019-03-01T20:05:20.271Z,8.63
2019-03-01T20:07:51.840Z,9.63
2019-03-01T20:10:19.231Z,14.60
2019-03-01T20:12:47.655Z,9.35
2019-03-01T20:15:24.432Z,10.58
2019-03-01T20:17:53.530Z,8.45
2019-03-01T20:20:23.847Z,11.18
2019-03-01T20:22:54.349Z,8.83
2019-03-01T20:25:22.522Z,8.63
2019-03-01T20:27:51.142Z,9.75
2019-03-01T20:30:30.698Z,6.55
2019-03-01T20:32:59.300Z,8.90
2019-03-01T20:35:28.619Z,12.43
2019-03-01T20:38:00.229Z,13.32
2019-03-01T20:40:28.251Z,9.10
2019-03-01T20:43:00.525Z,11.28
2019-03-01T20:45:31.807Z,13.05
2019-03-01T20:48:00.277Z,12.18
2019-03-01T20:50:28.875Z,8.65
2019-03-01T20:52:57.309Z,10.53
2019-03-01T20:55:25.733Z,12.03
2019-03-01T20:57:54.192Z,8.18
2019-03-01T21:00:26.167Z,11.20
2019-03-01T21:02:55.155Z,9.40
2019-03-01T21:05:24.964Z,12.45
2019-03-01T21:07:54.869Z,10.63
2019-03-01T21:10:24.693Z,11.45
2019-03-01T21:12:53.177Z,12.40
2019-03-01T21:15:22.076Z,12.93
2019-03-01T21:17:53.061Z,11.55
2019-03-01T21:20:21.115Z,7.83
2019-03-01T21:22:49.578Z,11.18
2019-03-01T21:25:24.023Z,14.25
2019-03-01T21:27:52.543Z,11.05
2019-03-01T21:30:29.723Z,9.63
2019-03-01T21:32:58.258Z,16.65
2019-03-01T21:35:26.699Z,13.65
2019-03-01T21:37:55.228Z,11.48
2019-03-01T21:40:23.670Z,8.28
2019-03-01T21:42:52.764Z,13.58
2019-03-01T21:45:23.929Z,14.43
2019-03-01T21:47:52.359Z,13.18
2019-03-01T21:50:21.030Z,8.05
2019-03-01T21:52:49.462Z,7.72
2019-03-01T21:55:28.927Z,8.30
2019-03-01T21:57:58.983Z,9.58
2019-03-01T22:00:31.210Z,10.43
2019-03-01T22:02:59.561Z,9.65
2019-03-01T22:05:27.999Z,9.63
2019-03-01T22:07:56.425Z,8.58
2019-03-01T22:10:24.895Z,7.80
2019-03-01T22:12:53.329Z,11.93
2019-03-01T22:15:27.104Z,10.58
2019-03-01T22:17:56.235Z,10.98
2019-03-01T22:20:24.840Z,10.75
2019-03-01T22:22:53.376Z,11.53
2019-03-01T22:25:21.819Z,13.90
2019-03-01T22:27:50.256Z,7.95
2019-03-01T22:30:34.680Z,8.53
2019-03-01T22:33:03.135Z,7.83
2019-03-01T22:35:31.562Z,7.95
2019-03-01T22:38:01.089Z,9.28
2019-03-01T22:40:30.229Z,9.75
2019-03-01T22:42:58.658Z,8.38
2019-03-01T22:45:27.143Z,13.00
2019-03-01T22:47:55.662Z,11.00
2019-03-01T22:50:24.109Z,12.35
2019-03-01T22:52:52.592Z,9.43
2019-03-01T22:55:21.477Z,9.13
2019-03-01T22:57:49.910Z,10.08
2019-03-01T23:00:48.165Z,12.28
2019-03-01T23:03:18.824Z,9.18
2019-03-01T23:05:48.069Z,12.98
2019-03-01T23:08:16.534Z,9.93
2019-03-01T23:10:44.977Z,11.57
2019-03-01T23:13:16.987Z,12.10
2019-03-01T23:15:44.561Z,16.70
2019-03-01T23:18:13.089Z,9.63
2019-03-01T23:20:41.790Z,11.20
2019-03-01T23:23:10.244Z,12.68
2019-03-01T23:25:38.683Z,11.10
2019-03-01T23:28:09.336Z,13.08
2019-03-01T23:30:37.850Z,8.90
2019-03-01T23:33:06.280Z,10.70
2019-03-01T23:35:34.880Z,11.53
2019-03-01T23:38:03.363Z,8.80
2019-03-01T23:40:32.692Z,12.73
2019-03-01T23:43:01.968Z,10.60
2019-03-01T23:45:30.423Z,13.58
2019-03-01T23:47:58.878Z,12.43
2019-03-01T23:50:27.390Z,12.00
2019-03-01T23:52:58.754Z,8.53
2019-03-01T23:55:26.028Z,16.80
2019-03-01T23:57:54.491Z,10.85
